Time;durP1;ratioP1;P1;durP2;ratioP2;P2;SDS_P1;SDS_P2;PMS_P1;PMS_P2;Temp;Humidity;BMP_temperature;BMP_pressure;BME280_temperature;BME280_humidity;BME280_pressure;Samples;Min_cycle;Max_cycle;Signal;HPM_P1;HPM_P2
2024/02/11 00:00:59;;;;;;;10.60;7.47;;;;;;;10.32;100.00;98508.66;5099876;28;20040;-66
2024/02/11 00:03:47;;;;;;;10.63;7.10;;;;;;;10.33;100.00;98493.13;5112427;27;20567;-66
2024/02/11 00:06:35;;;;;;;11.05;7.65;;;;;;;10.33;100.00;98501.28;5098867;28;20504;-66
2024/02/11 00:09:24;;;;;;;10.95;7.28;;;;;;;10.35;100.00;98504.47;5122951;28;20107;-66
2024/02/11 00:12:12;;;;;;;12.82;8.10;;;;;;;10.35;100.00;98507.22;5105176;28;20422;-68
2024/02/11 00:15:01;;;;;;;13.82;7.85;;;;;;;10.35;100.00;98505.28;5114585;27;20093;-66
2024/02/11 00:17:49;;;;;;;10.48;7.28;;;;;;;10.34;100.00;98513.75;5071568;28;20040;-66
2024/02/11 00:20:37;;;;;;;10.60;7.50;;;;;;;10.35;100.00;98512.66;5113541;28;20508;-65
2024/02/11 00:23:26;;;;;;;11.48;7.97;;;;;;;10.35;100.00;98518.09;5086039;28;20572;-66
2024/02/11 00:26:16;;;;;;;11.50;8.20;;;;;;;10.30;100.00;98521.78;5098537;28;20052;-66
2024/02/11 00:29:04;;;;;;;11.68;7.97;;;;;;;10.27;100.00;98516.13;5079144;28;20036;-67
2024/02/11 00:31:52;;;;;;;13.27;8.25;;;;;;;10.23;100.00;98516.78;5092374;28;20532;-67
2024/02/11 00:34:40;;;;;;;13.00;7.75;;;;;;;10.20;100.00;98512.00;5079216;28;20189;-66
2024/02/11 00:37:29;;;;;;;11.25;8.48;;;;;;;10.18;100.00;98516.16;5103786;27;20047;-66
2024/02/11 00:40:18;;;;;;;12.00;8.23;;;;;;;10.18;100.00;98511.53;5113194;28;20518;-66
2024/02/11 00:43:09;;;;;;;10.65;7.80;;;;;;;10.21;100.00;98508.16;5087847;27;20043;-66
2024/02/11 00:45:57;;;;;;;11.32;8.30;;;;;;;10.21;100.00;98513.59;5080067;28;20044;-65
2024/02/11 00:48:45;;;;;;;12.38;8.57;;;;;;;10.21;100.00;98513.59;5081801;27;20059;-65
2024/02/11 00:51:34;;;;;;;11.60;8.27;;;;;;;10.17;100.00;98501.78;5091601;28;20130;-68
2024/02/11 00:54:22;;;;;;;10.85;8.00;;;;;;;10.17;100.00;98507.22;5091784;28;20047;-66
2024/02/11 00:57:10;;;;;;;11.18;7.93;;;;;;;10.19;100.00;98502.22;5063515;28;20043;-66
2024/02/11 00:59:58;;;;;;;12.07;8.43;;;;;;;10.20;100.00;98498.41;5106277;27;20604;-66
2024/02/11 01:02:46;;;;;;;10.80;7.80;;;;;;;10.17;100.00;98501.78;5083340;28;20484;-66
2024/02/11 01:05:36;;;;;;;10.23;7.07;;;;;;;10.17;100.00;98493.59;5106206;27;20035;-66
2024/02/11 01:08:25;;;;;;;9.38;7.15;;;;;;;10.20;100.00;98490.22;5104449;27;20050;-66
2024/02/11 01:11:16;;;;;;;11.18;7.95;;;;;;;10.21;100.00;98491.81;5078515;28;20051;-66
2024/02/11 01:14:06;;;;;;;12.20;7.93;;;;;;;10.20;100.00;98489.44;5110309;28;20040;-66
2024/02/11 01:16:54;;;;;;;11.35;7.75;;;;;;;10.19;100.00;98496.78;5132706;27;20043;-65
2024/02/11 01:19:43;;;;;;;10.90;8.50;;;;;;;10.20;100.00;98495.69;5129033;27;20039;-66
2024/02/11 01:22:31;;;;;;;10.02;7.47;;;;;;;10.18;100.00;98494.41;5096806;28;20491;-65
2024/02/11 01:25:20;;;;;;;12.70;8.68;;;;;;;10.18;100.00;98494.41;5112285;28;20040;-65
2024/02/11 01:28:08;;;;;;;10.32;7.43;;;;;;;10.16;100.00;98494.72;5111801;28;20048;-66
2024/02/11 01:30:59;;;;;;;9.77;7.80;;;;;;;10.13;100.00;98495.38;5104698;28;20184;-66
2024/02/11 01:33:49;;;;;;;11.85;7.78;;;;;;;10.13;100.00;98492.66;5076403;28;20126;-67
2024/02/11 01:36:37;;;;;;;12.27;7.90;;;;;;;10.14;100.00;98490.72;5120748;27;20054;-66
2024/02/11 01:39:25;;;;;;;10.52;7.50;;;;;;;10.15;100.00;98495.84;5095033;28;20040;-67
2024/02/11 01:42:13;;;;;;;10.05;7.85;;;;;;;10.14;100.00;98496.94;5126565;27;20076;-67
2024/02/11 01:45:02;;;;;;;11.18;8.00;;;;;;;10.11;100.00;98503.03;5076583;28;20048;-66
2024/02/11 01:47:50;;;;;;;11.20;7.82;;;;;;;10.08;100.00;98503.69;5090318;28;20048;-66
2024/02/11 01:50:40;;;;;;;12.60;7.85;;;;;;;10.09;100.00;98504.50;5092048;28;20455;-66
2024/02/11 01:53:29;;;;;;;11.55;8.20;;;;;;;10.09;100.00;98502.56;5072407;28;20059;-66
2024/02/11 01:56:20;;;;;;;12.43;8.45;;;;;;;10.09;100.00;98501.78;5077636;28;20047;-65
2024/02/11 01:59:09;;;;;;;9.93;7.55;;;;;;;10.09;100.00;98499.84;5096953;28;20044;-66
2024/02/11 02:01:58;;;;;;;11.75;8.10;;;;;;;10.11;100.00;98492.16;5096205;28;20050;-66
2024/02/11 02:04:46;;;;;;;11.93;7.97;;;;;;;10.12;100.00;98496.47;5088872;28;20059;-66
2024/02/11 02:07:34;;;;;;;11.52;8.00;;;;;;;10.13;100.00;98494.56;5082971;28;20047;-65
2024/02/11 02:10:22;;;;;;;11.10;8.35;;;;;;;10.10;100.00;98490.56;5110751;28;20058;-66
2024/02/11 02:13:10;;;;;;;12.68;8.85;;;;;;;10.09;100.00;98490.88;5092661;28;20512;-65
2024/02/11 02:15:59;;;;;;;10.73;8.10;;;;;;;10.07;100.00;98496.63;5078540;28;20051;-66
2024/02/11 02:18:49;;;;;;;10.02;7.82;;;;;;;10.08;100.00;98492.81;5112205;28;20047;-66
2024/02/11 02:21:51;;;;;;;12.13;8.70;;;;;;;10.05;100.00;98488.00;5081638;28;20525;-66
2024/02/11 02:24:39;;;;;;;14.00;8.60;;;;;;;10.04;100.00;98478.25;5090602;28;20052;-65
2024/02/11 02:27:27;;;;;;;10.82;7.93;;;;;;;10.02;100.00;98478.56;5081523;28;20529;-65
2024/02/11 02:30:15;;;;;;;11.38;8.43;;;;;;;10.04;100.00;98480.97;5072671;28;20051;-67
2024/02/11 02:33:03;;;;;;;12.52;8.40;;;;;;;10.04;100.00;98472.81;5077209;28;20052;-67
2024/02/11 02:35:54;;;;;;;12.63;7.82;;;;;;;10.02;100.00;98477.75;5086650;28;20039;-66
2024/02/11 02:38:42;;;;;;;10.38;8.05;;;;;;;10.01;100.00;98487.06;5082933;28;20071;-66
2024/02/11 02:41:30;;;;;;;11.55;8.15;;;;;;;10.00;100.00;98480.00;5083169;28;20078;-66
2024/02/11 02:44:18;;;;;;;12.05;8.07;;;;;;;10.01;100.00;98476.97;5099998;28;20064;-66
2024/02/11 02:47:06;;;;;;;13.70;8.15;;;;;;;10.02;100.00;98475.03;5116780;28;20046;-66
2024/02/11 02:49:54;;;;;;;11.15;8.07;;;;;;;10.00;100.00;98480.00;5087794;28;20076;-67
2024/02/11 02:52:46;;;;;;;12.02;8.10;;;;;;;10.02;100.00;98472.31;5080308;28;20142;-67
2024/02/11 02:55:34;;;;;;;13.77;8.55;;;;;;;10.03;100.00;98472.00;5114859;28;20380;-66
2024/02/11 02:58:23;;;;;;;10.85;8.00;;;;;;;10.03;100.00;98472.00;5115574;28;20052;-66
2024/02/11 03:01:29;;;;;;;10.93;7.88;;;;;;;10.05;100.00;98466.22;5117531;28;20406;-64
2024/02/11 03:04:17;;;;;;;10.75;7.43;;;;;;;10.05;100.00;98466.22;5130983;28;20107;-62
2024/02/11 03:07:08;;;;;;;10.73;7.80;;;;;;;10.05;100.00;98462.72;5118233;28;20052;-64
2024/02/11 03:09:56;;;;;;;9.88;6.90;;;;;;;10.07;100.00;98466.72;5112287;28;20044;-64
2024/02/11 03:12:44;;;;;;;14.73;7.30;;;;;;;10.10;100.00;98465.25;5100978;27;20103;-66
2024/02/11 03:15:32;;;;;;;11.00;7.57;;;;;;;10.11;100.00;98459.50;5149660;27;20063;-63
2024/02/11 03:18:22;;;;;;;12.85;7.95;;;;;;;10.12;100.00;98454.84;5123278;27;20498;-66
2024/02/11 03:21:10;;;;;;;11.43;7.60;;;;;;;10.10;100.00;98457.94;5117002;27;20131;-64
2024/02/11 03:23:58;;;;;;;12.35;7.60;;;;;;;10.09;100.00;98456.31;5105352;28;20116;-66
2024/02/11 03:26:46;;;;;;;9.95;7.18;;;;;;;10.12;100.00;98458.38;5114766;28;20522;-66
2024/02/11 03:29:34;;;;;;;9.77;7.10;;;;;;;10.13;100.00;98457.28;5088981;28;20587;-65
2024/02/11 03:32:22;;;;;;;10.35;7.82;;;;;;;10.14;100.00;98458.84;5108103;28;20044;-66
2024/02/11 03:35:10;;;;;;;9.40;6.95;;;;;;;10.13;100.00;98467.38;5089551;27;20039;-65
2024/02/11 03:37:59;;;;;;;10.15;7.13;;;;;;;10.12;100.00;98460.31;5135981;27;20502;-66
2024/02/11 03:40:47;;;;;;;10.38;7.40;;;;;;;10.11;100.00;98464.94;5103168;28;20511;-66
2024/02/11 03:43:35;;;;;;;10.45;6.90;;;;;;;10.11;100.00;98470.41;5113714;28;20063;-66
2024/02/11 03:46:23;;;;;;;14.38;7.70;;;;;;;10.12;100.00;98465.75;5091450;28;20051;-66
2024/02/11 03:49:11;;;;;;;9.70;7.25;;;;;;;10.12;100.00;98466.53;5113327;28;20105;-67
2024/02/11 03:51:59;;;;;;;10.48;6.88;;;;;;;10.14;100.00;98469.75;5100660;28;20503;-67
2024/02/11 03:54:47;;;;;;;10.38;7.10;;;;;;;10.15;100.00;98470.53;5099046;28;20510;-66
2024/02/11 03:57:37;;;;;;;10.50;6.80;;;;;;;10.14;100.00;98467.03;5078450;28;20044;-67
2024/02/11 04:00:25;;;;;;;12.30;7.38;;;;;;;10.15;100.00;98471.34;5080864;28;20524;-68
2024/02/11 04:03:16;;;;;;;11.70;7.47;;;;;;;10.17;100.00;98474.56;5113100;28;20072;-67
2024/02/11 04:06:07;;;;;;;11.95;7.57;;;;;;;10.18;100.00;98476.16;5125781;27;20184;-66
2024/02/11 04:08:55;;;;;;;11.10;7.68;;;;;;;10.18;100.00;98481.59;5114562;27;20044;-66
2024/02/11 04:11:43;;;;;;;10.70;7.43;;;;;;;10.14;100.00;98480.63;5121125;27;20213;-67
2024/02/11 04:14:32;;;;;;;11.07;7.45;;;;;;;10.11;100.00;98484.00;5134811;27;20039;-66
2024/02/11 04:17:20;;;;;;;11.05;7.40;;;;;;;10.11;100.00;98488.66;5136391;27;20043;-66
2024/02/11 04:20:15;;;;;;;12.38;7.35;;;;;;;10.10;100.00;98490.56;5120097;27;20113;-66
2024/02/11 04:23:04;;;;;;;12.13;7.90;;;;;;;10.10;100.00;98490.56;5099546;28;20073;-66
2024/02/11 04:25:52;;;;;;;14.07;8.38;;;;;;;10.10;100.00;98485.13;5098823;28;20065;-66
2024/02/11 04:28:41;;;;;;;13.68;8.18;;;;;;;10.11;100.00;98492.16;5113326;28;20097;-66
2024/02/11 04:31:31;;;;;;;12.85;7.68;;;;;;;10.15;100.00;98493.13;5084626;28;20103;-66
2024/02/11 04:34:21;;;;;;;13.00;7.25;;;;;;;10.16;100.00;98492.00;5100200;28;20541;-66
2024/02/11 04:37:12;;;;;;;11.02;7.63;;;;;;;10.18;100.00;98481.59;5132241;27;20085;-66
2024/02/11 04:40:00;;;;;;;11.63;7.03;;;;;;;10.19;100.00;98488.63;5118329;27;20450;-67
2024/02/11 04:42:52;;;;;;;14.02;7.93;;;;;;;10.19;100.00;98494.06;5065891;27;20058;-66
2024/02/11 04:45:41;;;;;;;12.95;8.38;;;;;;;10.21;100.00;98497.25;5119640;27;20080;-66
2024/02/11 04:48:31;;;;;;;12.70;7.40;;;;;;;10.22;100.00;98500.78;5101273;27;20055;-65
2024/02/11 04:51:22;;;;;;;16.75;8.38;;;;;;;10.23;100.00;98500.47;5078269;28;20129;-66
2024/02/11 04:54:10;;;;;;;13.35;8.13;;;;;;;10.22;100.00;98493.44;5077076;28;20048;-67
2024/02/11 04:57:00;;;;;;;10.88;8.20;;;;;;;10.22;100.00;98503.50;5077615;28;20051;-65
2024/02/11 04:59:48;;;;;;;13.52;8.55;;;;;;;10.21;100.00;98504.63;5110712;28;20047;-66
2024/02/11 05:02:37;;;;;;;12.63;8.32;;;;;;;10.20;100.00;98511.22;5113170;28;20056;-66
2024/02/11 05:05:30;;;;;;;10.98;7.68;;;;;;;10.20;100.00;98501.13;5116661;27;20085;-66
2024/02/11 05:08:19;;;;;;;11.90;8.35;;;;;;;10.21;100.00;98513.59;5130049;27;20169;-65
2024/02/11 05:11:10;;;;;;;11.70;8.30;;;;;;;10.21;100.00;98510.88;5085155;28;20523;-66
2024/02/11 05:13:58;;;;;;;13.48;8.68;;;;;;;10.22;100.00;98512.47;5075355;28;20035;-66
2024/02/11 05:16:46;;;;;;;10.27;7.57;;;;;;;10.23;100.00;98522.25;5090529;28;20051;-66
2024/02/11 05:19:34;;;;;;;12.57;9.05;;;;;;;10.24;100.00;98531.97;5095214;28;20564;-65
2024/02/11 05:22:25;;;;;;;12.45;9.30;;;;;;;10.24;100.00;98528.47;5112333;28;20559;-66
2024/02/11 05:25:19;;;;;;;11.27;8.48;;;;;;;10.26;100.00;98531.69;5107343;27;20054;-66
2024/02/11 05:28:15;;;;;;;10.93;8.70;;;;;;;10.24;100.00;98534.72;5090304;28;20597;-65
2024/02/11 05:31:05;;;;;;;11.82;8.88;;;;;;;10.23;100.00;98544.00;5078389;28;20062;-66
2024/02/11 05:33:55;;;;;;;9.63;7.78;;;;;;;10.22;100.00;98547.03;5094395;28;20085;-66
2024/02/11 05:36:43;;;;;;;9.75;7.70;;;;;;;10.23;100.00;98549.44;5110770;28;20043;-66
2024/02/11 05:39:31;;;;;;;9.10;7.20;;;;;;;10.20;100.00;98552.81;5077523;28;20048;-65
2024/02/11 05:42:19;;;;;;;7.68;5.63;;;;;;;10.18;100.00;98552.34;5092710;28;20039;-65
2024/02/11 05:45:08;;;;;;;8.95;6.55;;;;;;;10.13;100.00;98552.50;5076867;28;20043;-66
2024/02/11 05:47:56;;;;;;;8.82;6.50;;;;;;;10.10;100.00;98577.66;5063011;28;20109;-63
2024/02/11 05:50:46;;;;;;;9.07;6.95;;;;;;;10.03;100.00;98571.88;5102016;28;20054;-66
2024/02/11 05:53:35;;;;;;;8.93;7.10;;;;;;;9.96;100.00;98585.16;5100540;28;20069;-66
2024/02/11 05:56:23;;;;;;;9.18;7.40;;;;;;;9.85;100.00;98583.84;5129294;27;20047;-67
2024/02/11 05:59:11;;;;;;;8.93;6.78;;;;;;;9.82;100.00;98598.91;5078975;28;20048;-67
2024/02/11 06:02:00;;;;;;;9.00;6.85;;;;;;;9.81;100.00;98600.81;5091478;28;20040;-67
2024/02/11 06:04:49;;;;;;;9.85;7.28;;;;;;;9.82;100.00;98604.34;5105179;28;20103;-66
2024/02/11 06:07:37;;;;;;;8.50;6.20;;;;;;;9.76;100.00;98611.81;5121625;28;20147;-67
2024/02/11 06:10:27;;;;;;;8.13;6.43;;;;;;;9.74;100.00;98616.81;5098959;28;20047;-67
2024/02/11 06:13:15;;;;;;;9.57;7.70;;;;;;;9.71;100.00;98631.00;5081377;28;20047;-67
2024/02/11 06:16:06;;;;;;;11.45;7.80;;;;;;;9.67;100.00;98629.22;5112059;28;20066;-68
2024/02/11 06:18:54;;;;;;;10.20;8.00;;;;;;;9.65;100.00;98642.38;5125973;27;20050;-67
2024/02/11 06:21:42;;;;;;;12.07;9.05;;;;;;;9.60;100.00;98648.75;5123738;27;20403;-67
2024/02/11 06:24:30;;;;;;;11.52;8.45;;;;;;;9.54;100.00;98648.06;5120619;27;20545;-67
2024/02/11 06:27:18;;;;;;;12.70;9.23;;;;;;;9.50;100.00;98647.13;5135252;27;20051;-67
2024/02/11 06:30:08;;;;;;;10.48;8.02;;;;;;;9.51;100.00;98659.59;5100370;27;20088;-66
2024/02/11 06:32:56;;;;;;;14.20;9.32;;;;;;;9.52;100.00;98661.16;5074932;28;20407;-64
2024/02/11 06:35:45;;;;;;;12.13;9.02;;;;;;;9.54;100.00;98667.09;5106073;28;20043;-66
2024/02/11 06:38:34;;;;;;;16.98;10.00;;;;;;;9.49;100.00;98671.88;5117711;28;20044;-65
2024/02/11 06:41:22;;;;;;;16.23;10.38;;;;;;;9.47;100.00;98674.91;5106394;27;20050;-67
2024/02/11 06:44:12;;;;;;;14.50;9.65;;;;;;;9.43;100.00;98673.94;5135856;27;20039;-66
2024/02/11 06:47:00;;;;;;;15.43;9.82;;;;;;;9.39;100.00;98681.91;5102292;27;20054;-66
2024/02/11 06:49:48;;;;;;;15.43;10.00;;;;;;;9.42;100.00;98685.13;5104538;27;20104;-66
2024/02/11 06:52:36;;;;;;;15.00;9.60;;;;;;;9.39;100.00;98700.16;5116132;27;20047;-67
2024/02/11 06:55:25;;;;;;;16.95;11.05;;;;;;;9.37;100.00;98703.16;5108388;27;20039;-67
2024/02/11 06:58:14;;;;;;;17.20;10.77;;;;;;;9.37;100.00;98708.59;5117329;27;20043;-66
2024/02/11 07:01:02;;;;;;;18.65;11.00;;;;;;;9.39;100.00;98721.88;5117473;27;20051;-67
2024/02/11 07:03:51;;;;;;;16.17;10.98;;;;;;;9.39;100.00;98730.84;5081871;28;20048;-70
2024/02/11 07:06:44;;;;;;;15.73;11.18;;;;;;;9.41;100.00;98729.75;5111786;28;20039;-67
2024/02/11 07:09:33;;;;;;;18.42;11.05;;;;;;;9.39;100.00;98739.00;5116257;28;20050;-67
2024/02/11 07:12:21;;;;;;;18.10;10.88;;;;;;;9.39;100.00;98743.63;5098008;28;20435;-66
2024/02/11 07:15:11;;;;;;;18.67;12.18;;;;;;;9.38;100.00;98764.56;5116604;28;20055;-64
2024/02/11 07:17:59;;;;;;;17.55;12.15;;;;;;;9.40;100.00;98764.25;5119604;28;20035;-67
2024/02/11 07:20:47;;;;;;;19.73;11.98;;;;;;;9.44;100.00;98767.16;5102000;28;20058;-66
2024/02/11 07:23:35;;;;;;;13.13;9.60;;;;;;;9.42;100.00;98774.81;5085380;28;20075;-65
2024/02/11 07:26:24;;;;;;;15.55;10.00;;;;;;;9.42;100.00;98778.34;5104127;28;20100;-67
2024/02/11 07:29:12;;;;;;;13.05;8.20;;;;;;;9.42;100.00;98780.25;5124307;27;20039;-64
2024/02/11 07:32:00;;;;;;;13.90;8.20;;;;;;;9.43;100.00;98792.72;5128532;27;20123;-68
2024/02/11 07:34:48;;;;;;;15.68;8.60;;;;;;;9.43;100.00;98792.72;5118410;27;20043;-67
2024/02/11 07:37:36;;;;;;;15.85;7.40;;;;;;;9.45;100.00;98798.66;5097629;28;20051;-65
2024/02/11 07:40:24;;;;;;;13.43;7.88;;;;;;;9.41;100.00;98801.19;5092972;27;20396;-67
2024/02/11 07:43:12;;;;;;;14.80;7.93;;;;;;;9.39;100.00;98804.22;5098896;27;20135;-66
2024/02/11 07:46:02;;;;;;;13.40;7.35;;;;;;;9.39;100.00;98808.84;5126932;27;20051;-67
2024/02/11 07:48:51;;;;;;;12.18;7.07;;;;;;;9.38;100.00;98808.06;5116242;27;20085;-67
2024/02/11 07:51:44;;;;;;;16.63;6.47;;;;;;;9.43;100.00;98811.75;5100349;28;20050;-67
2024/02/11 07:54:33;;;;;;;11.40;5.95;;;;;;;9.46;100.00;98813.88;5084554;27;20103;-67
2024/02/11 07:57:21;;;;;;;12.90;6.30;;;;;;;9.45;100.00;98820.41;5116197;27;20123;-67
2024/02/11 08:00:10;;;;;;;11.88;5.43;;;;;;;9.43;100.00;98820.72;5101872;27;20123;-67
2024/02/11 08:02:58;;;;;;;10.98;5.40;;;;;;;9.46;100.00;98827.47;5114559;28;20052;-68
2024/02/11 08:05:46;;;;;;;11.85;5.88;;;;;;;9.48;100.00;98826.03;5093671;28;20044;-67
2024/02/11 08:08:37;;;;;;;13.15;5.72;;;;;;;9.47;100.00;98831.78;5092442;28;20051;-67
2024/02/11 08:11:25;;;;;;;14.68;6.45;;;;;;;9.47;100.00;98838.00;5079832;28;20449;-67
2024/02/11 08:14:13;;;;;;;10.07;4.43;;;;;;;9.48;100.00;98822.53;5097271;28;20470;-67
2024/02/11 08:17:01;;;;;;;11.85;5.68;;;;;;;9.47;100.00;98827.13;5109501;28;20400;-65
2024/02/11 08:19:49;;;;;;;14.75;6.18;;;;;;;9.38;100.00;98832.53;5112775;28;20415;-67
2024/02/11 08:22:37;;;;;;;16.38;6.70;;;;;;;9.29;100.00;98839.00;5085347;28;20044;-67
2024/02/11 08:25:26;;;;;;;13.95;6.68;;;;;;;9.27;100.00;98843.94;5112365;28;20065;-67
2024/02/11 08:28:14;;;;;;;13.32;6.20;;;;;;;9.29;100.00;98849.88;5099272;28;20067;-67
2024/02/11 08:31:03;;;;;;;12.65;5.40;;;;;;;9.35;100.00;98857.59;5085518;28;20043;-67
2024/02/11 08:33:51;;;;;;;13.65;4.60;;;;;;;9.44;100.00;98862.28;5114196;27;20047;-65
2024/02/11 08:36:39;;;;;;;10.57;4.70;;;;;;;9.46;100.00;98863.59;5121124;27;20047;-66
2024/02/11 08:39:27;;;;;;;11.50;4.85;;;;;;;9.45;100.00;98867.41;5133748;27;20039;-66
2024/02/11 08:42:15;;;;;;;16.13;6.40;;;;;;;9.44;100.00;98865.00;5102274;28;20043;-66
2024/02/11 08:45:03;;;;;;;14.18;5.88;;;;;;;9.45;100.00;98866.63;5095788;28;20040;-67
2024/02/11 08:47:51;;;;;;;14.25;6.03;;;;;;;9.45;100.00;98872.03;5114027;27;20065;-67
2024/02/11 08:50:40;;;;;;;14.98;6.00;;;;;;;9.47;100.00;98870.63;5117844;27;20047;-65
2024/02/11 08:53:30;;;;;;;16.42;6.35;;;;;;;9.47;100.00;98872.53;5087791;28;20051;-67
2024/02/11 08:56:19;;;;;;;18.20;6.32;;;;;;;9.47;100.00;98869.81;5116085;27;20524;-66
2024/02/11 08:59:08;;;;;;;16.55;6.53;;;;;;;9.47;100.00;98877.97;5106475;28;20564;-66
2024/02/11 09:01:58;;;;;;;14.73;6.30;;;;;;;9.45;100.00;98875.56;5100480;28;20039;-66
2024/02/11 09:04:46;;;;;;;15.13;6.10;;;;;;;9.50;100.00;98866.47;5112061;28;20044;-66
2024/02/11 09:07:36;;;;;;;17.35;7.35;;;;;;;9.50;100.00;98880.06;5109730;28;20240;-67
2024/02/11 09:10:26;;;;;;;25.33;7.47;;;;;;;9.51;100.00;98881.69;5085705;28;20048;-66
2024/02/11 09:13:14;;;;;;;20.80;7.13;;;;;;;9.49;100.00;98892.06;5097753;27;20043;-67
2024/02/11 09:16:03;;;;;;;14.82;6.50;;;;;;;9.49;100.00;98897.50;5124130;27;20088;-67
2024/02/11 09:18:51;;;;;;;20.38;7.53;;;;;;;9.53;100.00;98890.34;5103810;28;20078;-67
2024/02/11 09:21:39;;;;;;;18.30;6.85;;;;;;;9.49;100.00;98889.34;5124162;27;20055;-67
2024/02/11 09:24:27;;;;;;;19.65;6.90;;;;;;;9.48;100.00;98901.34;5098982;27;20659;-66
2024/02/11 09:27:16;;;;;;;31.67;9.27;;;;;;;9.55;100.00;98899.81;5110065;28;20055;-67
2024/02/11 09:30:07;;;;;;;19.90;7.13;;;;;;;9.54;100.00;98903.63;5111312;28;20092;-68
2024/02/11 09:32:55;;;;;;;17.75;6.90;;;;;;;9.52;100.00;98902.31;5111769;28;20145;-68
2024/02/11 09:35:43;;;;;;;25.92;7.65;;;;;;;9.53;100.00;98903.94;5090013;28;20040;-66
2024/02/11 09:38:31;;;;;;;21.40;7.15;;;;;;;9.52;100.00;98907.75;5091353;28;20036;-67
2024/02/11 09:41:21;;;;;;;18.80;7.13;;;;;;;9.43;100.00;98898.72;5108272;27;20042;-68
2024/02/11 09:44:12;;;;;;;19.52;7.57;;;;;;;9.38;100.00;98905.91;5082795;27;20039;-66
2024/02/11 09:47:01;;;;;;;18.20;7.10;;;;;;;9.36;100.00;98910.84;5132338;27;20116;-67
2024/02/11 09:49:52;;;;;;;18.92;7.57;;;;;;;9.38;100.00;98905.91;5103617;28;20048;-67
2024/02/11 09:52:40;;;;;;;17.13;6.07;;;;;;;9.46;100.00;98920.69;5098320;27;20570;-67
2024/02/11 09:55:29;;;;;;;23.98;7.88;;;;;;;9.49;100.00;98917.34;5108182;28;20456;-67
2024/02/11 09:58:17;;;;;;;23.23;7.82;;;;;;;9.54;100.00;98916.41;5124809;28;20047;-65
2024/02/11 10:01:05;;;;;;;22.35;7.82;;;;;;;9.58;100.00;98920.13;5097914;28;20079;-65
2024/02/11 10:03:57;;;;;;;21.77;7.07;;;;;;;9.54;100.00;98921.84;5085971;28;20380;-66
2024/02/11 10:06:47;;;;;;;17.48;6.78;;;;;;;9.51;100.00;98926.00;5084034;28;20036;-66
2024/02/11 10:09:35;;;;;;;19.40;6.97;;;;;;;9.51;100.00;98925.19;5091911;28;20123;-66
2024/02/11 10:12:24;;;;;;;21.40;7.97;;;;;;;9.43;100.00;98929.47;5095928;28;20100;-65
2024/02/11 10:15:15;;;;;;;19.67;7.40;;;;;;;9.41;100.00;98937.09;5076544;28;20114;-66
2024/02/11 10:18:08;;;;;;;26.92;7.85;;;;;;;9.41;100.00;98947.97;5070762;28;20042;-66
2024/02/11 10:20:56;;;;;;;19.95;7.22;;;;;;;9.47;100.00;98940.50;5086161;28;20547;-66
2024/02/11 10:23:44;;;;;;;17.90;6.78;;;;;;;9.50;100.00;98945.31;5086319;28;20044;-66
2024/02/11 10:26:33;;;;;;;17.30;6.75;;;;;;;9.53;100.00;98950.97;5094752;28;20053;-66
2024/02/11 10:29:21;;;;;;;16.63;6.30;;;;;;;9.55;100.00;98956.09;5111098;28;20044;-65
2024/02/11 10:32:14;;;;;;;22.08;7.32;;;;;;;9.56;100.00;98952.25;5096281;28;20040;-66
2024/02/11 10:35:04;;;;;;;17.48;6.50;;;;;;;9.56;100.00;98954.97;5068174;28;20519;-66
2024/02/11 10:37:52;;;;;;;20.25;6.93;;;;;;;9.57;100.00;98962.84;5083126;28;20392;-65
2024/02/11 10:40:44;;;;;;;21.35;7.07;;;;;;;9.59;100.00;98948.91;5120317;28;20046;-65
2024/02/11 10:43:33;;;;;;;17.15;6.78;;;;;;;9.59;100.00;98955.16;5132860;28;20133;-66
2024/02/11 10:46:22;;;;;;;20.65;7.20;;;;;;;9.60;100.00;98958.69;5124291;28;20040;-63
2024/02/11 10:49:11;;;;;;;29.83;7.18;;;;;;;9.70;100.00;98968.53;5096381;28;20039;-67
2024/02/11 10:52:05;;;;;;;18.98;6.80;;;;;;;9.67;100.00;98971.84;5101948;28;20086;-68
2024/02/11 10:54:56;;;;;;;16.25;6.28;;;;;;;9.67;100.00;98972.69;5107618;28;20036;-66
2024/02/11 10:57:54;;;;;;;18.42;6.50;;;;;;;9.69;100.00;98975.06;5102591;28;20345;-65
2024/02/11 11:00:44;;;;;;;19.42;7.07;;;;;;;9.69;100.00;98978.63;5104186;28;20047;-65
2024/02/11 11:03:36;;;;;;;20.35;6.65;;;;;;;9.59;100.00;98976.09;5098406;27;20721;-66
2024/02/11 11:06:25;;;;;;;16.50;7.10;;;;;;;9.54;100.00;98970.78;5070533;28;20540;-66
2024/02/11 11:09:14;;;;;;;19.50;6.68;;;;;;;9.53;100.00;98961.03;5097516;28;20134;-67
2024/02/11 11:12:08;;;;;;;21.77;7.13;;;;;;;9.57;100.00;98976.44;5103165;28;20108;-67
2024/02/11 11:14:59;;;;;;;15.85;5.68;;;;;;;9.57;100.00;98981.88;5112188;27;20039;-66
2024/02/11 11:17:48;;;;;;;18.23;6.70;;;;;;;9.65;100.00;98977.63;5108004;27;20047;-66
2024/02/11 11:20:37;;;;;;;17.10;6.32;;;;;;;9.65;100.00;98980.34;5111545;27;20040;-66
2024/02/11 11:23:28;;;;;;;18.60;6.30;;;;;;;9.70;100.00;98976.69;5076593;28;20048;-66
2024/02/11 11:26:21;;;;;;;16.52;6.38;;;;;;;9.69;100.00;98984.06;5102385;28;20040;-65
2024/02/11 11:29:09;;;;;;;13.65;5.20;;;;;;;9.68;100.00;98979.72;5120590;27;20058;-67
2024/02/11 11:32:00;;;;;;;18.77;6.45;;;;;;;9.71;100.00;98979.09;5104402;28;20097;-67
2024/02/11 11:34:50;;;;;;;19.17;6.97;;;;;;;9.79;100.00;98983.81;5095633;28;20426;-64
2024/02/11 11:37:38;;;;;;;22.65;6.25;;;;;;;9.80;100.00;98971.81;5117175;28;20051;-67
2024/02/11 11:40:30;;;;;;;18.02;5.80;;;;;;;9.78;100.00;98970.50;5135991;27;20044;-67
2024/02/11 11:43:20;;;;;;;18.50;6.78;;;;;;;9.76;100.00;98976.25;5107141;28;20124;-67
2024/02/11 11:46:09;;;;;;;5.35;3.50;;;;;;;9.76;100.00;98976.25;4023875;28;10022647;-66
2024/02/11 11:48:57;;;;;;;21.58;7.32;;;;;;;9.71;100.00;98976.38;5079703;27;20152;-68
2024/02/11 11:51:45;;;;;;;25.88;7.07;;;;;;;9.69;100.00;98970.47;5071555;28;20050;-68
2024/02/11 11:54:34;;;;;;;21.08;6.60;;;;;;;9.69;100.00;98969.63;5093930;27;20367;-68
2024/02/11 11:57:22;;;;;;;16.08;5.38;;;;;;;9.67;100.00;98972.69;5096265;28;20048;-67
2024/02/11 12:00:12;;;;;;;15.32;5.80;;;;;;;9.71;100.00;98973.66;5111685;27;20057;-68
2024/02/11 12:03:00;;;;;;;20.70;5.72;;;;;;;9.74;100.00;98970.34;5109547;28;20048;-69
2024/02/11 12:05:49;;;;;;;16.50;5.72;;;;;;;9.77;100.00;98972.44;5089758;28;20040;-67
2024/02/11 12:08:38;;;;;;;21.42;6.57;;;;;;;9.81;100.00;98970.72;5077465;28;20047;-68
2024/02/11 12:11:26;;;;;;;20.73;6.25;;;;;;;9.84;100.00;98972.00;5099585;28;20079;-68
2024/02/11 12:14:15;;;;;;;18.73;6.30;;;;;;;9.86;100.00;98977.94;5099100;28;20075;-68
2024/02/11 12:17:04;;;;;;;16.48;5.63;;;;;;;9.85;100.00;98973.59;5074666;28;20078;-69
2024/02/11 12:19:53;;;;;;;16.92;5.53;;;;;;;9.89;100.00;98979.25;5077957;28;20383;-68
2024/02/11 12:22:42;;;;;;;19.48;6.10;;;;;;;9.89;100.00;98974.59;5092253;27;20040;-68
2024/02/11 12:25:31;;;;;;;17.92;5.90;;;;;;;9.93;100.00;98981.03;5091624;28;20138;-67
2024/02/11 12:28:32;;;;;;;19.27;6.70;;;;;;;9.93;100.00;98981.03;5090518;28;20048;-68
2024/02/11 12:31:21;;;;;;;17.50;6.45;;;;;;;9.95;100.00;98986.16;5097880;27;20389;-68
2024/02/11 12:34:13;;;;;;;14.43;5.88;;;;;;;9.95;100.00;98991.59;5108173;28;20113;-67
2024/02/11 12:37:06;;;;;;;17.08;6.10;;;;;;;10.01;100.00;98993.09;5095362;28;20058;-67
2024/02/11 12:39:55;;;;;;;16.38;5.53;;;;;;;10.08;100.00;98996.19;5093225;28;20044;-68
2024/02/11 12:42:45;;;;;;;18.52;5.68;;;;;;;10.04;100.00;98997.91;5047882;28;20462;-68
2024/02/11 12:45:33;;;;;;;16.98;5.63;;;;;;;10.02;100.00;98992.78;5075340;28;20040;-66
2024/02/11 12:48:20;;;;;;;16.73;5.60;;;;;;;10.01;100.00;98991.16;5075472;28;20097;-66
2024/02/11 12:51:13;;;;;;;17.58;5.38;;;;;;;10.06;100.00;98990.25;5076265;28;20060;-68
2024/02/11 12:54:02;;;;;;;15.10;4.93;;;;;;;10.08;100.00;98993.47;5075653;28;20055;-67
2024/02/11 12:56:51;;;;;;;14.02;5.38;;;;;;;10.08;100.00;98988.03;5073554;28;20044;-68
2024/02/11 12:59:39;;;;;;;19.13;6.22;;;;;;;10.11;100.00;98992.84;5104575;27;20523;-68
2024/02/11 13:02:27;;;;;;;13.82;5.28;;;;;;;10.11;100.00;98998.28;5093790;28;20054;-69